KAL844 ZSQD-RKSI
Flight info
| Callsign | KAL844 |
|---|---|
| Flight time | 1h 4m |
| Altitude | 33000 |
| Route | LAT81D LATUX W209 AGAVO/N0463F330 Y644 REBIT DCT |
| Aircraft | A21N/M-V/N |
Departure
| Time | 2026-05-05 02:04 |
|---|---|
| Airport | Qingdao Jiaodong International Airport (ZSQD) |
Arrival
| Time | 2026-05-05 03:08 |
|---|---|
| Airport | Incheon International Airport (RKSI) |
| Time | Latitude | Longitude | Altitude | Speed | Heading |
|---|---|---|---|---|---|
| 2026-05-05 01:40 | 36.36379 | 120.08188 | 32 ft | 0 kts | 191° |
| 2026-05-05 01:50 | 36.36387 | 120.08190 | 32 ft | 2 kts | 191° |
| 2026-05-05 01:50 | 36.36402 | 120.08193 | 32 ft | 2 kts | 191° |
| 2026-05-05 01:50 | 36.36412 | 120.08195 | 32 ft | 2 kts | 191° |
| 2026-05-05 01:51 | 36.36432 | 120.08200 | 32 ft | 2 kts | 191° |
| 2026-05-05 01:51 | 36.36441 | 120.08202 | 32 ft | 2 kts | 191° |
| 2026-05-05 01:51 | 36.36456 | 120.08206 | 32 ft | 2 kts | 191° |
| 2026-05-05 01:51 | 36.36476 | 120.08211 | 32 ft | 2 kts | 191° |
| 2026-05-05 01:52 | 36.36491 | 120.08215 | 32 ft | 2 kts | 191° |
| 2026-05-05 01:52 | 36.36505 | 120.08219 | 32 ft | 2 kts | 208° |
| 2026-05-05 01:52 | 36.36518 | 120.08231 | 31 ft | 2 kts | 228° |
| 2026-05-05 01:52 | 36.36526 | 120.08246 | 31 ft | 2 kts | 249° |
| 2026-05-05 01:53 | 36.36529 | 120.08258 | 31 ft | 2 kts | 263° |
| 2026-05-05 01:53 | 36.36529 | 120.08276 | 31 ft | 1 kts | 282° |
| 2026-05-05 01:53 | 36.36527 | 120.08283 | 31 ft | 1 kts | 283° |
| 2026-05-05 01:58 | 36.36528 | 120.08282 | 31 ft | 1 kts | 283° |
| 2026-05-05 01:58 | 36.36539 | 120.08217 | 31 ft | 20 kts | 281° |
| 2026-05-05 01:58 | 36.36554 | 120.08052 | 29 ft | 13 kts | 257° |
| 2026-05-05 01:58 | 36.36523 | 120.07935 | 28 ft | 14 kts | 252° |
| 2026-05-05 01:59 | 36.36494 | 120.07819 | 28 ft | 13 kts | 253° |
| 2026-05-05 01:59 | 36.36467 | 120.07707 | 29 ft | 12 kts | 258° |
| 2026-05-05 01:59 | 36.36485 | 120.07652 | 29 ft | 6 kts | 310° |
| 2026-05-05 01:59 | 36.36507 | 120.07627 | 29 ft | 7 kts | 324° |
| 2026-05-05 02:00 | 36.36579 | 120.07589 | 28 ft | 10 kts | 341° |
| 2026-05-05 02:00 | 36.36675 | 120.07552 | 28 ft | 16 kts | 343° |
| 2026-05-05 02:00 | 36.36747 | 120.07524 | 28 ft | 14 kts | 341° |
| 2026-05-05 02:00 | 36.36796 | 120.07476 | 28 ft | 3 kts | 297° |
| 2026-05-05 02:01 | 36.36795 | 120.07463 | 28 ft | 4 kts | 264° |
| 2026-05-05 02:01 | 36.36791 | 120.07442 | 28 ft | 0 kts | 253° |
| 2026-05-05 02:02 | 36.36787 | 120.07425 | 28 ft | 13 kts | 253° |
| 2026-05-05 02:02 | 36.36759 | 120.07344 | 28 ft | 15 kts | 227° |
| 2026-05-05 02:02 | 36.36677 | 120.07333 | 28 ft | 0 kts | 165° |
| 2026-05-05 02:03 | 36.36659 | 120.07340 | 28 ft | 13 kts | 164° |
| 2026-05-05 02:03 | 36.36423 | 120.07436 | 32 ft | 67 kts | 162° |
| 2026-05-05 02:03 | 36.36035 | 120.07589 | 34 ft | 108 kts | 162° |
| 2026-05-05 02:03 | 36.34780 | 120.08074 | 153 ft | 164 kts | 164° |
| 2026-05-05 02:04 | 36.33643 | 120.08497 | 623 ft | 173 kts | 162° |
| 2026-05-05 02:04 | 36.32544 | 120.08952 | 1427 ft | 167 kts | 163° |
| 2026-05-05 02:04 | 36.31449 | 120.09399 | 2091 ft | 169 kts | 164° |
| 2026-05-05 02:04 | 36.30278 | 120.09856 | 2480 ft | 184 kts | 165° |
| 2026-05-05 02:05 | 36.29001 | 120.10347 | 2822 ft | 204 kts | 165° |
| 2026-05-05 02:05 | 36.28068 | 120.10751 | 3043 ft | 219 kts | 157° |
| 2026-05-05 02:05 | 36.26834 | 120.12023 | 3435 ft | 245 kts | 128° |
| 2026-05-05 02:05 | 36.26186 | 120.14079 | 3852 ft | 269 kts | 97° |
| 2026-05-05 02:06 | 36.26661 | 120.17185 | 4770 ft | 281 kts | 71° |
| 2026-05-05 02:06 | 36.27291 | 120.19466 | 5572 ft | 283 kts | 71° |
| 2026-05-05 02:06 | 36.27697 | 120.20976 | 6080 ft | 285 kts | 71° |
| 2026-05-05 02:06 | 36.28520 | 120.24113 | 7084 ft | 288 kts | 71° |
| 2026-05-05 02:07 | 36.29127 | 120.26467 | 7860 ft | 290 kts | 71° |
| 2026-05-05 02:07 | 36.29732 | 120.28828 | 8604 ft | 291 kts | 71° |
| 2026-05-05 02:07 | 36.30233 | 120.31255 | 9327 ft | 294 kts | 84° |
| 2026-05-05 02:07 | 36.29927 | 120.33766 | 10015 ft | 299 kts | 111° |
| 2026-05-05 02:08 | 36.28751 | 120.35894 | 10621 ft | 306 kts | 137° |
| 2026-05-05 02:08 | 36.27575 | 120.36897 | 10811 ft | 316 kts | 155° |
| 2026-05-05 02:08 | 36.24710 | 120.38062 | 11251 ft | 335 kts | 160° |
| 2026-05-05 02:08 | 36.23211 | 120.38789 | 11448 ft | 345 kts | 156° |
| 2026-05-05 02:09 | 36.20206 | 120.40430 | 11788 ft | 364 kts | 155° |
| 2026-05-05 02:09 | 36.17858 | 120.41727 | 12118 ft | 376 kts | 155° |
| 2026-05-05 02:09 | 36.15439 | 120.43044 | 12692 ft | 379 kts | 155° |
| 2026-05-05 02:09 | 36.13001 | 120.44353 | 13346 ft | 381 kts | 155° |
| 2026-05-05 02:10 | 36.10575 | 120.45650 | 13938 ft | 382 kts | 155° |
| 2026-05-05 02:10 | 36.08130 | 120.46949 | 14491 ft | 385 kts | 155° |
| 2026-05-05 02:10 | 36.06482 | 120.47823 | 14843 ft | 387 kts | 155° |
| 2026-05-05 02:10 | 36.03995 | 120.49139 | 15375 ft | 389 kts | 155° |
| 2026-05-05 02:11 | 36.00673 | 120.50895 | 16076 ft | 392 kts | 155° |
| 2026-05-05 02:11 | 35.98983 | 120.51786 | 16410 ft | 394 kts | 155° |
| 2026-05-05 02:11 | 35.96465 | 120.53112 | 16899 ft | 396 kts | 155° |
| 2026-05-05 02:11 | 35.93892 | 120.54466 | 17408 ft | 398 kts | 155° |
| 2026-05-05 02:12 | 35.91363 | 120.55795 | 17870 ft | 400 kts | 155° |
| 2026-05-05 02:12 | 35.85302 | 120.58983 | 18870 ft | 407 kts | 155° |
| 2026-05-05 02:12 | 35.82699 | 120.60349 | 19221 ft | 411 kts | 155° |
| 2026-05-05 02:13 | 35.80046 | 120.61741 | 19581 ft | 415 kts | 155° |
| 2026-05-05 02:13 | 35.77372 | 120.63143 | 19936 ft | 419 kts | 155° |
| 2026-05-05 02:13 | 35.74705 | 120.64540 | 20306 ft | 422 kts | 155° |
| 2026-05-05 02:13 | 35.71974 | 120.65969 | 20668 ft | 425 kts | 156° |
| 2026-05-05 02:14 | 35.70153 | 120.66922 | 20897 ft | 427 kts | 156° |
| 2026-05-05 02:14 | 35.66486 | 120.68838 | 21315 ft | 432 kts | 156° |
| 2026-05-05 02:14 | 35.63712 | 120.70287 | 21663 ft | 435 kts | 156° |
| 2026-05-05 02:14 | 35.60928 | 120.71740 | 21997 ft | 437 kts | 156° |
| 2026-05-05 02:15 | 35.58093 | 120.73218 | 22340 ft | 440 kts | 156° |
| 2026-05-05 02:15 | 35.56258 | 120.74305 | 22531 ft | 441 kts | 149° |
| 2026-05-05 02:15 | 35.53298 | 120.77724 | 22897 ft | 441 kts | 123° |
| 2026-05-05 02:15 | 35.51981 | 120.81091 | 23211 ft | 439 kts | 105° |
| 2026-05-05 02:16 | 35.51558 | 120.84780 | 23485 ft | 437 kts | 88° |
| 2026-05-05 02:16 | 35.52056 | 120.88445 | 23759 ft | 435 kts | 70° |
| 2026-05-05 02:16 | 35.52820 | 120.90694 | 23959 ft | 435 kts | 63° |
| 2026-05-05 02:16 | 35.54113 | 120.94053 | 24252 ft | 437 kts | 63° |
| 2026-05-05 02:17 | 35.55866 | 120.98620 | 24599 ft | 441 kts | 63° |
| 2026-05-05 02:17 | 35.57161 | 121.02039 | 24885 ft | 442 kts | 63° |
| 2026-05-05 02:17 | 35.58451 | 121.05476 | 25176 ft | 444 kts | 64° |
| 2026-05-05 02:17 | 35.59738 | 121.08928 | 25453 ft | 446 kts | 64° |
| 2026-05-05 02:18 | 35.61034 | 121.12416 | 25710 ft | 448 kts | 64° |
| 2026-05-05 02:18 | 35.62319 | 121.15885 | 25964 ft | 449 kts | 64° |
| 2026-05-05 02:18 | 35.63186 | 121.18230 | 26134 ft | 450 kts | 64° |
| 2026-05-05 02:18 | 35.64489 | 121.21753 | 26388 ft | 452 kts | 64° |
| 2026-05-05 02:19 | 35.66232 | 121.26479 | 26724 ft | 454 kts | 64° |
| 2026-05-05 02:19 | 35.67088 | 121.28799 | 26869 ft | 455 kts | 64° |
| 2026-05-05 02:19 | 35.68844 | 121.33568 | 27162 ft | 457 kts | 64° |
| 2026-05-05 02:19 | 35.69717 | 121.35939 | 27311 ft | 458 kts | 64° |
| 2026-05-05 02:20 | 35.71462 | 121.40679 | 27597 ft | 460 kts | 64° |
| 2026-05-05 02:20 | 35.72786 | 121.44286 | 27818 ft | 462 kts | 64° |
| 2026-05-05 02:20 | 35.73665 | 121.46687 | 27990 ft | 462 kts | 64° |
| 2026-05-05 02:20 | 35.75416 | 121.51472 | 28411 ft | 461 kts | 64° |
| 2026-05-05 02:21 | 35.76730 | 121.55067 | 28736 ft | 460 kts | 64° |
| 2026-05-05 02:21 | 35.78034 | 121.58639 | 29058 ft | 459 kts | 64° |
| 2026-05-05 02:21 | 35.79342 | 121.62227 | 29365 ft | 458 kts | 64° |
| 2026-05-05 02:21 | 35.80638 | 121.65790 | 29653 ft | 458 kts | 64° |
| 2026-05-05 02:22 | 35.81513 | 121.68192 | 29843 ft | 458 kts | 64° |
| 2026-05-05 02:22 | 35.83251 | 121.72976 | 30224 ft | 458 kts | 64° |
| 2026-05-05 02:22 | 35.84118 | 121.75362 | 30414 ft | 458 kts | 64° |
| 2026-05-05 02:22 | 35.85428 | 121.78973 | 30689 ft | 457 kts | 64° |
| 2026-05-05 02:23 | 35.87146 | 121.83717 | 31031 ft | 458 kts | 64° |
| 2026-05-05 02:23 | 35.88437 | 121.87284 | 31279 ft | 458 kts | 64° |
| 2026-05-05 02:23 | 35.89307 | 121.89693 | 31434 ft | 459 kts | 64° |
| 2026-05-05 02:23 | 35.91039 | 121.94493 | 31707 ft | 460 kts | 64° |
| 2026-05-05 02:24 | 35.92342 | 121.98109 | 32064 ft | 457 kts | 64° |
| 2026-05-05 02:24 | 35.93193 | 122.00470 | 32344 ft | 455 kts | 64° |
| 2026-05-05 02:24 | 35.94486 | 122.04063 | 32633 ft | 455 kts | 65° |
| 2026-05-05 02:24 | 35.96194 | 122.08817 | 32845 ft | 458 kts | 64° |
| 2026-05-05 02:25 | 35.97052 | 122.11208 | 32940 ft | 459 kts | 65° |
| 2026-05-05 02:25 | 36.00079 | 122.19664 | 33031 ft | 462 kts | 64° |
| 2026-05-05 02:26 | 36.02239 | 122.25703 | 33022 ft | 462 kts | 65° |
| 2026-05-05 02:26 | 36.05266 | 122.34190 | 33025 ft | 462 kts | 65° |
| 2026-05-05 02:27 | 36.07406 | 122.40208 | 33035 ft | 462 kts | 64° |
| 2026-05-05 02:27 | 36.10431 | 122.48737 | 33041 ft | 462 kts | 65° |
| 2026-05-05 02:28 | 36.12569 | 122.54776 | 33038 ft | 462 kts | 65° |
| 2026-05-05 02:28 | 36.15582 | 122.63308 | 33042 ft | 462 kts | 65° |
| 2026-05-05 02:29 | 36.17718 | 122.69371 | 33043 ft | 462 kts | 65° |
| 2026-05-05 02:29 | 36.20717 | 122.77902 | 33056 ft | 463 kts | 65° |
| 2026-05-05 02:30 | 36.23270 | 122.85184 | 33052 ft | 462 kts | 65° |
| 2026-05-05 02:30 | 36.25835 | 122.92516 | 33058 ft | 462 kts | 65° |
| 2026-05-05 02:31 | 36.27954 | 122.98583 | 33066 ft | 462 kts | 65° |
| 2026-05-05 02:31 | 36.30920 | 123.07112 | 33047 ft | 462 kts | 65° |
| 2026-05-05 02:32 | 36.33451 | 123.14402 | 33069 ft | 463 kts | 65° |
| 2026-05-05 02:32 | 36.35990 | 123.21735 | 33061 ft | 463 kts | 65° |
| 2026-05-05 02:33 | 36.38187 | 123.27799 | 33062 ft | 461 kts | 61° |
| 2026-05-05 02:33 | 36.42289 | 123.35518 | 33067 ft | 459 kts | 49° |
| 2026-05-05 02:34 | 36.45976 | 123.40267 | 33073 ft | 462 kts | 39° |
| 2026-05-05 02:34 | 36.51154 | 123.45110 | 33077 ft | 463 kts | 32° |
| 2026-05-05 02:35 | 36.56525 | 123.49580 | 33064 ft | 463 kts | 31° |
| 2026-05-05 02:35 | 36.62738 | 123.54774 | 33073 ft | 464 kts | 32° |
| 2026-05-05 02:36 | 36.67217 | 123.58549 | 33083 ft | 463 kts | 32° |
| 2026-05-05 02:36 | 36.72532 | 123.62991 | 33075 ft | 462 kts | 32° |
| 2026-05-05 02:37 | 36.77886 | 123.67444 | 33070 ft | 461 kts | 32° |
| 2026-05-05 02:37 | 36.84121 | 123.72642 | 33075 ft | 461 kts | 32° |
| 2026-05-05 02:38 | 36.89454 | 123.77104 | 33072 ft | 461 kts | 32° |
| 2026-05-05 02:38 | 36.93916 | 123.80844 | 33084 ft | 460 kts | 32° |
| 2026-05-05 02:39 | 36.99215 | 123.85293 | 33081 ft | 460 kts | 32° |
| 2026-05-05 02:39 | 37.05429 | 123.90521 | 33085 ft | 460 kts | 32° |
| 2026-05-05 02:40 | 37.10490 | 123.95373 | 33076 ft | 462 kts | 43° |
| 2026-05-05 02:40 | 37.13845 | 124.00649 | 33077 ft | 465 kts | 57° |
| 2026-05-05 02:40 | 37.15749 | 124.05450 | 33072 ft | 467 kts | 68° |
| 2026-05-05 02:41 | 37.16697 | 124.09345 | 33076 ft | 464 kts | 76° |
| 2026-05-05 02:41 | 37.17383 | 124.17316 | 33082 ft | 460 kts | 86° |
| 2026-05-05 02:42 | 37.17628 | 124.25350 | 33074 ft | 461 kts | 86° |
| 2026-05-05 02:42 | 37.17791 | 124.32070 | 33076 ft | 461 kts | 87° |
| 2026-05-05 02:43 | 37.17977 | 124.40086 | 33077 ft | 462 kts | 86° |
| 2026-05-05 02:43 | 37.18171 | 124.48122 | 33026 ft | 458 kts | 87° |
| 2026-05-05 02:43 | 37.18292 | 124.53406 | 32433 ft | 455 kts | 87° |
| 2026-05-05 02:44 | 37.18351 | 124.56057 | 32022 ft | 454 kts | 87° |
| 2026-05-05 02:44 | 37.18439 | 124.60004 | 31463 ft | 450 kts | 86° |
| 2026-05-05 02:44 | 37.18524 | 124.63879 | 30892 ft | 448 kts | 86° |
| 2026-05-05 02:44 | 37.18639 | 124.69087 | 29996 ft | 447 kts | 87° |
| 2026-05-05 02:45 | 37.18722 | 124.72997 | 29217 ft | 447 kts | 87° |
| 2026-05-05 02:45 | 37.18803 | 124.76886 | 28369 ft | 450 kts | 87° |
| 2026-05-05 02:45 | 37.18885 | 124.80833 | 27476 ft | 452 kts | 87° |
| 2026-05-05 02:45 | 37.18966 | 124.84769 | 26579 ft | 454 kts | 87° |
| 2026-05-05 02:46 | 37.19047 | 124.88781 | 25799 ft | 453 kts | 87° |
| 2026-05-05 02:46 | 37.19123 | 124.92664 | 25250 ft | 447 kts | 88° |
| 2026-05-05 02:46 | 37.19196 | 124.96524 | 24673 ft | 442 kts | 87° |
| 2026-05-05 02:46 | 37.19269 | 125.00383 | 24048 ft | 438 kts | 87° |
| 2026-05-05 02:47 | 37.19316 | 125.02952 | 23621 ft | 436 kts | 87° |
| 2026-05-05 02:47 | 37.19410 | 125.07983 | 22796 ft | 432 kts | 87° |
| 2026-05-05 02:47 | 37.19477 | 125.11695 | 22207 ft | 428 kts | 87° |
| 2026-05-05 02:47 | 37.19545 | 125.15443 | 21618 ft | 424 kts | 87° |
| 2026-05-05 02:48 | 37.19589 | 125.17906 | 21242 ft | 421 kts | 88° |
| 2026-05-05 02:48 | 37.19652 | 125.21510 | 20690 ft | 417 kts | 88° |
| 2026-05-05 02:48 | 37.19714 | 125.25151 | 20122 ft | 413 kts | 88° |
| 2026-05-05 02:48 | 37.19793 | 125.29936 | 19374 ft | 408 kts | 88° |
| 2026-05-05 02:49 | 37.19849 | 125.33441 | 18825 ft | 404 kts | 88° |
| 2026-05-05 02:49 | 37.19904 | 125.36951 | 18283 ft | 400 kts | 88° |
| 2026-05-05 02:49 | 37.19940 | 125.39226 | 17932 ft | 397 kts | 88° |
| 2026-05-05 02:49 | 37.19993 | 125.42670 | 17398 ft | 393 kts | 88° |
| 2026-05-05 02:50 | 37.19533 | 125.47160 | 16631 ft | 389 kts | 106° |
| 2026-05-05 02:50 | 37.18628 | 125.50308 | 16129 ft | 385 kts | 110° |
| 2026-05-05 02:50 | 37.17970 | 125.52403 | 15755 ft | 383 kts | 111° |
| 2026-05-05 02:50 | 37.16986 | 125.55488 | 15280 ft | 379 kts | 111° |
| 2026-05-05 02:51 | 37.15686 | 125.59547 | 15117 ft | 379 kts | 111° |
| 2026-05-05 02:51 | 37.14706 | 125.62615 | 15113 ft | 379 kts | 111° |
| 2026-05-05 02:51 | 37.13736 | 125.65665 | 15114 ft | 379 kts | 111° |
| 2026-05-05 02:51 | 37.12759 | 125.68737 | 15115 ft | 379 kts | 111° |
| 2026-05-05 02:52 | 37.11800 | 125.71817 | 15117 ft | 379 kts | 109° |
| 2026-05-05 02:52 | 37.11397 | 125.73949 | 15069 ft | 377 kts | 97° |
| 2026-05-05 02:52 | 37.11703 | 125.78251 | 14514 ft | 372 kts | 73° |
| 2026-05-05 02:52 | 37.12398 | 125.80188 | 14085 ft | 373 kts | 60° |
| 2026-05-05 02:53 | 37.13907 | 125.82807 | 13536 ft | 371 kts | 52° |
| 2026-05-05 02:53 | 37.16076 | 125.86142 | 12789 ft | 369 kts | 51° |
| 2026-05-05 02:53 | 37.17710 | 125.88625 | 12214 ft | 367 kts | 51° |
| 2026-05-05 02:53 | 37.19328 | 125.91080 | 11658 ft | 366 kts | 51° |
| 2026-05-05 02:54 | 37.20929 | 125.93510 | 11166 ft | 363 kts | 51° |
| 2026-05-05 02:54 | 37.22010 | 125.95158 | 11006 ft | 364 kts | 51° |
| 2026-05-05 02:54 | 37.24163 | 125.98445 | 10966 ft | 367 kts | 51° |
| 2026-05-05 02:54 | 37.25770 | 126.00902 | 10949 ft | 367 kts | 51° |
| 2026-05-05 02:55 | 37.27393 | 126.03382 | 10961 ft | 367 kts | 51° |
| 2026-05-05 02:55 | 37.29021 | 126.05873 | 10961 ft | 368 kts | 51° |
| 2026-05-05 02:55 | 37.30113 | 126.07543 | 10984 ft | 368 kts | 51° |
| 2026-05-05 02:55 | 37.32270 | 126.10838 | 10959 ft | 368 kts | 51° |
| 2026-05-05 02:56 | 37.33896 | 126.13323 | 10962 ft | 368 kts | 51° |
| 2026-05-05 02:56 | 37.35568 | 126.15806 | 10946 ft | 368 kts | 46° |
| 2026-05-05 02:56 | 37.36849 | 126.17152 | 10874 ft | 366 kts | 34° |
| 2026-05-05 02:56 | 37.39175 | 126.18432 | 10423 ft | 359 kts | 12° |
| 2026-05-05 02:57 | 37.42321 | 126.18374 | 9832 ft | 332 kts | 342° |
| 2026-05-05 02:57 | 37.44297 | 126.17102 | 9433 ft | 311 kts | 318° |
| 2026-05-05 02:57 | 37.45612 | 126.15048 | 9075 ft | 290 kts | 297° |
| 2026-05-05 02:57 | 37.46479 | 126.12779 | 8727 ft | 284 kts | 292° |
| 2026-05-05 02:58 | 37.47252 | 126.10540 | 8376 ft | 280 kts | 291° |
| 2026-05-05 02:58 | 37.48019 | 126.08287 | 8011 ft | 277 kts | 291° |
| 2026-05-05 02:58 | 37.48783 | 126.06052 | 7674 ft | 275 kts | 291° |
| 2026-05-05 02:58 | 37.49529 | 126.03877 | 7309 ft | 273 kts | 292° |
| 2026-05-05 02:59 | 37.50615 | 126.01914 | 6901 ft | 277 kts | 316° |
| 2026-05-05 02:59 | 37.52302 | 126.00773 | 6514 ft | 279 kts | 344° |
| 2026-05-05 02:59 | 37.54259 | 126.00717 | 6133 ft | 281 kts | 12° |
| 2026-05-05 02:59 | 37.56009 | 126.01759 | 5718 ft | 282 kts | 39° |
| 2026-05-05 03:00 | 37.56901 | 126.02958 | 5457 ft | 281 kts | 54° |
| 2026-05-05 03:00 | 37.57945 | 126.04999 | 5125 ft | 278 kts | 60° |
| 2026-05-05 03:00 | 37.58923 | 126.07110 | 4976 ft | 276 kts | 61° |
| 2026-05-05 03:00 | 37.60201 | 126.09907 | 4961 ft | 278 kts | 61° |
| 2026-05-05 03:01 | 37.61170 | 126.12028 | 4958 ft | 278 kts | 61° |
| 2026-05-05 03:01 | 37.62132 | 126.14136 | 4705 ft | 275 kts | 61° |
| 2026-05-05 03:01 | 37.63085 | 126.16216 | 4278 ft | 277 kts | 61° |
| 2026-05-05 03:01 | 37.64048 | 126.18307 | 3896 ft | 276 kts | 61° |
| 2026-05-05 03:02 | 37.64700 | 126.19716 | 3663 ft | 275 kts | 61° |
| 2026-05-05 03:02 | 37.65970 | 126.22484 | 3291 ft | 268 kts | 65° |
| 2026-05-05 03:02 | 37.66434 | 126.24664 | 3072 ft | 255 kts | 94° |
| 2026-05-05 03:02 | 37.66253 | 126.26083 | 2952 ft | 244 kts | 114° |
| 2026-05-05 03:03 | 37.65335 | 126.27763 | 2730 ft | 226 kts | 145° |
| 2026-05-05 03:03 | 37.63490 | 126.28807 | 2462 ft | 212 kts | 166° |
| 2026-05-05 03:03 | 37.62100 | 126.29311 | 2280 ft | 205 kts | 167° |
| 2026-05-05 03:03 | 37.60717 | 126.29793 | 1999 ft | 204 kts | 165° |
| 2026-05-05 03:04 | 37.59409 | 126.30431 | 1826 ft | 196 kts | 157° |
| 2026-05-05 03:04 | 37.58636 | 126.30959 | 1710 ft | 184 kts | 152° |
| 2026-05-05 03:04 | 37.57315 | 126.32060 | 1586 ft | 154 kts | 148° |
| 2026-05-05 03:04 | 37.56472 | 126.32814 | 1563 ft | 145 kts | 148° |
| 2026-05-05 03:05 | 37.55671 | 126.33533 | 1546 ft | 136 kts | 149° |
| 2026-05-05 03:05 | 37.55154 | 126.33993 | 1559 ft | 136 kts | 149° |
| 2026-05-05 03:05 | 37.54127 | 126.34904 | 1572 ft | 135 kts | 149° |
| 2026-05-05 03:05 | 37.53344 | 126.35599 | 1546 ft | 136 kts | 149° |
| 2026-05-05 03:06 | 37.52569 | 126.36287 | 1392 ft | 136 kts | 148° |
| 2026-05-05 03:06 | 37.51796 | 126.36975 | 1204 ft | 136 kts | 149° |
| 2026-05-05 03:06 | 37.51069 | 126.37621 | 1036 ft | 135 kts | 149° |
| 2026-05-05 03:06 | 37.50552 | 126.38080 | 913 ft | 136 kts | 148° |
| 2026-05-05 03:07 | 37.49519 | 126.38997 | 693 ft | 134 kts | 146° |
| 2026-05-05 03:07 | 37.48759 | 126.39679 | 477 ft | 134 kts | 147° |
| 2026-05-05 03:07 | 37.47998 | 126.40355 | 337 ft | 133 kts | 147° |
| 2026-05-05 03:07 | 37.47240 | 126.41023 | 146 ft | 133 kts | 148° |
| 2026-05-05 03:08 | 37.46477 | 126.41692 | 30 ft | 129 kts | 146° |
| 2026-05-05 03:08 | 37.45857 | 126.42236 | 29 ft | 85 kts | 143° |
| 2026-05-05 03:08 | 37.45490 | 126.42567 | 29 ft | 51 kts | 143° |
| 2026-05-05 03:08 | 37.45327 | 126.42806 | 29 ft | 25 kts | 111° |
| 2026-05-05 03:09 | 37.45291 | 126.42929 | 29 ft | 9 kts | 121° |
| 2026-05-05 03:09 | 37.45258 | 126.42999 | 29 ft | 9 kts | 121° |
| 2026-05-05 03:09 | 37.45214 | 126.43067 | 29 ft | 10 kts | 133° |
| 2026-05-05 03:09 | 37.45158 | 126.43127 | 29 ft | 10 kts | 144° |
| 2026-05-05 03:10 | 37.45099 | 126.43185 | 29 ft | 11 kts | 126° |
| 2026-05-05 03:10 | 37.45119 | 126.43310 | 29 ft | 22 kts | 58° |
| 2026-05-05 03:10 | 37.45201 | 126.43465 | 29 ft | 16 kts | 55° |
| 2026-05-05 03:10 | 37.45224 | 126.43507 | 29 ft | 0 kts | 55° |
| 2026-05-05 03:11 | 37.45253 | 126.43559 | 29 ft | 5 kts | 58° |
| 2026-05-05 03:11 | 37.45258 | 126.43607 | 29 ft | 5 kts | 110° |
| 2026-05-05 03:11 | 37.45227 | 126.43645 | 29 ft | 6 kts | 144° |
| 2026-05-05 03:11 | 37.45182 | 126.43681 | 29 ft | 8 kts | 146° |
| 2026-05-05 03:12 | 37.45152 | 126.43708 | 29 ft | 8 kts | 143° |
| 2026-05-05 03:12 | 37.45083 | 126.43771 | 29 ft | 9 kts | 143° |
| 2026-05-05 03:12 | 37.45025 | 126.43823 | 29 ft | 10 kts | 143° |
| 2026-05-05 03:12 | 37.44982 | 126.43890 | 29 ft | 10 kts | 92° |
| 2026-05-05 03:13 | 37.45011 | 126.43947 | 29 ft | 7 kts | 23° |
| 2026-05-05 03:13 | 37.45074 | 126.43928 | 29 ft | 12 kts | 329° |
| 2026-05-05 03:13 | 37.45148 | 126.43865 | 29 ft | 13 kts | 322° |
| 2026-05-05 03:13 | 37.45198 | 126.43818 | 29 ft | 13 kts | 324° |
| 2026-05-05 03:14 | 37.45305 | 126.43725 | 29 ft | 14 kts | 323° |
| 2026-05-05 03:14 | 37.45387 | 126.43650 | 29 ft | 14 kts | 326° |
| 2026-05-05 03:14 | 37.45443 | 126.43602 | 29 ft | 14 kts | 324° |
| 2026-05-05 03:14 | 37.45554 | 126.43502 | 29 ft | 13 kts | 324° |
| 2026-05-05 03:15 | 37.45606 | 126.43456 | 29 ft | 13 kts | 326° |
| 2026-05-05 03:15 | 37.45714 | 126.43361 | 29 ft | 14 kts | 324° |
| 2026-05-05 03:15 | 37.45768 | 126.43312 | 29 ft | 12 kts | 324° |
| 2026-05-05 03:15 | 37.45870 | 126.43293 | 29 ft | 12 kts | 39° |
| 2026-05-05 03:16 | 37.45916 | 126.43336 | 29 ft | 12 kts | 15° |
| 2026-05-05 03:16 | 37.46016 | 126.43282 | 29 ft | 12 kts | 321° |
| 2026-05-05 03:16 | 37.46064 | 126.43237 | 29 ft | 13 kts | 323° |
| 2026-05-05 03:16 | 37.46142 | 126.43173 | 29 ft | 5 kts | 345° |
| 2026-05-05 03:17 | 37.46172 | 126.43199 | 29 ft | 6 kts | 68° |
| 2026-05-05 03:17 | 37.46196 | 126.43256 | 29 ft | 7 kts | 60° |
| 2026-05-05 03:17 | 37.46202 | 126.43269 | 29 ft | 0 kts | 60° |